Time;durP1;ratioP1;P1;durP2;ratioP2;P2;SDS_P1;SDS_P2;PMS_P1;PMS_P2;Temp;Humidity;BMP_temperature;BMP_pressure;BME280_temperature;BME280_humidity;BME280_pressure;Samples;Min_cycle;Max_cycle;Signal;HPM_P1;HPM_P2
2022/09/05 00:01:31;;;;;;;2.23;1.30;;;22.60;94.30;;;;;;4972606;28;20688;-72
2022/09/05 00:04:19;;;;;;;1.70;1.13;;;22.60;94.70;;;;;;4956864;28;20670;-72
2022/09/05 00:07:01;;;;;;;1.60;1.03;;;22.60;95.40;;;;;;4972847;28;20247;-72
2022/09/05 00:10:05;;;;;;;1.97;1.50;;;22.50;95.80;;;;;;4973682;28;20661;-72
2022/09/05 00:12:32;;;;;;;1.83;1.20;;;22.50;96.40;;;;;;4956596;28;20602;-72
2022/09/05 00:15:13;;;;;;;2.27;1.23;;;22.50;95.60;;;;;;4956422;28;20571;-72
2022/09/05 00:17:54;;;;;;;1.63;0.97;;;22.40;95.80;;;;;;4956670;28;21052;-72
2022/09/05 00:20:28;;;;;;;1.60;1.00;;;22.40;95.90;;;;;;4956124;28;20957;-72
2022/09/05 00:22:58;;;;;;;1.60;1.10;;;22.40;96.00;;;;;;4973652;28;21218;-72
2022/09/05 00:25:41;;;;;;;2.50;1.10;;;22.40;96.20;;;;;;4973706;28;20583;-72
2022/09/05 00:29:01;;;;;;;1.80;1.10;;;22.30;97.10;;;;;;4971283;28;20649;-72
2022/09/05 00:31:48;;;;;;;1.83;1.10;;;22.30;96.50;;;;;;4889585;29;20618;-72
2022/09/05 00:34:43;;;;;;;1.80;1.00;;;22.30;96.70;;;;;;4971034;28;20567;-72
2022/09/05 00:37:10;;;;;;;1.80;0.90;;;22.20;96.60;;;;;;4928153;28;20667;-72
2022/09/05 00:39:38;;;;;;;3.00;1.17;;;22.20;96.80;;;;;;4968367;28;20698;-72
2022/09/05 00:42:10;;;;;;;2.00;1.10;;;22.20;97.00;;;;;;4969520;28;21191;-72
2022/09/05 00:45:00;;;;;;;2.93;1.10;;;22.20;97.10;;;;;;4960756;28;20594;-72
2022/09/05 00:47:40;;;;;;;2.10;1.23;;;22.10;97.50;;;;;;4956058;28;20976;-72
2022/09/05 00:50:16;;;;;;;2.40;0.80;;;22.10;97.70;;;;;;4961583;28;20726;-72
2022/09/05 00:52:56;;;;;;;2.40;1.20;;;22.00;97.60;;;;;;4965164;28;20586;-72
2022/09/05 00:55:51;;;;;;;2.13;1.10;;;22.00;97.80;;;;;;4961361;28;20587;-72
2022/09/05 00:58:43;;;;;;;1.77;1.10;;;22.00;98.10;;;;;;4959998;28;20747;-72
2022/09/05 01:01:44;;;;;;;1.87;1.10;;;21.90;97.80;;;;;;4923383;28;20598;-72
2022/09/05 01:04:26;;;;;;;1.77;1.00;;;21.90;98.10;;;;;;4964907;28;20646;-72
2022/09/05 01:07:21;;;;;;;1.77;1.33;;;21.80;98.50;;;;;;4955714;28;20961;-72
2022/09/05 01:09:49;;;;;;;2.50;1.23;;;21.80;98.60;;;;;;4971372;28;20731;-72
2022/09/05 01:12:43;;;;;;;1.80;0.87;;;21.80;98.90;;;;;;4972897;28;20567;-72
2022/09/05 01:15:21;;;;;;;2.50;1.27;;;21.70;99.90;;;;;;4972927;28;20591;-72
2022/09/05 01:17:56;;;;;;;2.10;1.40;;;21.70;99.20;;;;;;4972976;28;20977;-72
2022/09/05 01:20:37;;;;;;;2.10;1.23;;;21.70;99.60;;;;;;4971099;28;20614;-72
2022/09/05 01:23:39;;;;;;;1.67;1.13;;;21.70;99.30;;;;;;4955344;28;20598;-72
2022/09/05 01:26:18;;;;;;;2.27;1.10;;;21.70;99.50;;;;;;4971231;28;20654;-72
2022/09/05 01:28:56;;;;;;;1.93;1.30;;;21.60;99.50;;;;;;4972749;28;20599;-72
2022/09/05 01:31:45;;;;;;;2.03;1.70;;;21.60;99.50;;;;;;4972298;28;20615;-72
2022/09/05 01:34:26;;;;;;;3.43;1.20;;;21.60;99.90;;;;;;4916742;28;20579;-72
2022/09/05 01:37:12;;;;;;;1.70;1.00;;;21.60;99.90;;;;;;4972856;28;21091;-72
2022/09/05 01:39:57;;;;;;;2.17;1.10;;;21.60;99.90;;;;;;4955117;28;20599;-72
2022/09/05 01:42:29;;;;;;;2.00;1.47;;;21.50;99.90;;;;;;4955251;28;20654;-72
2022/09/05 01:45:08;;;;;;;2.10;1.10;;;21.50;99.90;;;;;;4972523;28;20566;-72
2022/09/05 01:47:38;;;;;;;2.80;1.47;;;21.50;99.90;;;;;;4972518;28;20563;-72
2022/09/05 01:50:33;;;;;;;3.10;1.20;;;21.40;99.90;;;;;;4971050;28;21035;-72
2022/09/05 01:53:26;;;;;;;4.13;1.20;;;21.40;99.90;;;;;;4972388;28;20602;-72
2022/09/05 01:56:06;;;;;;;1.83;1.10;;;21.30;99.90;;;;;;4972509;28;20670;-72
2022/09/05 01:58:43;;;;;;;2.10;1.30;;;21.30;99.90;;;;;;4972498;28;20591;-72
2022/09/05 02:01:13;;;;;;;2.13;1.43;;;21.30;99.90;;;;;;4955018;28;20590;-72
2022/09/05 02:03:46;;;;;;;2.50;1.37;;;21.20;99.90;;;;;;4955186;28;20567;-72
2022/09/05 02:06:50;;;;;;;2.00;1.40;;;21.20;99.90;;;;;;4972454;28;21223;-72
2022/09/05 02:09:39;;;;;;;1.83;1.03;;;21.20;99.90;;;;;;4954617;28;20590;-72
2022/09/05 02:12:27;;;;;;;1.93;1.43;;;21.10;99.90;;;;;;4972373;28;20563;-72
2022/09/05 02:14:59;;;;;;;1.60;1.10;;;21.10;99.90;;;;;;4972423;28;20555;-72
2022/09/05 02:17:39;;;;;;;2.27;1.20;;;21.10;99.90;;;;;;4971016;28;20574;-72
2022/09/05 02:20:31;;;;;;;1.90;1.00;;;21.10;99.90;;;;;;4971880;28;21372;-72
2022/09/05 02:23:24;;;;;;;1.83;1.20;;;21.00;99.90;;;;;;4970870;28;20654;-72
2022/09/05 02:26:07;;;;;;;1.83;1.40;;;21.00;99.90;;;;;;4972318;28;20563;-72
2022/09/05 02:28:59;;;;;;;2.17;0.97;;;21.00;99.90;;;;;;4972235;28;20598;-72
2022/09/05 02:31:47;;;;;;;2.70;1.40;;;21.00;99.90;;;;;;4971801;28;20722;-72
2022/09/05 02:34:41;;;;;;;1.90;1.40;;;21.00;99.90;;;;;;4965753;28;20680;-72
2022/09/05 02:37:31;;;;;;;1.90;1.00;;;20.90;99.90;;;;;;4954739;28;20649;-72
2022/09/05 02:40:05;;;;;;;2.43;1.23;;;20.90;99.90;;;;;;4960917;28;21002;-72
2022/09/05 02:42:43;;;;;;;1.60;1.30;;;20.90;99.90;;;;;;4974166;28;20646;-72
2022/09/05 02:45:32;;;;;;;2.80;1.17;;;20.90;99.90;;;;;;4970009;28;20582;-72
2022/09/05 02:48:36;;;;;;;2.00;1.40;;;20.90;99.90;;;;;;4971514;28;20615;-72
2022/09/05 02:51:29;;;;;;;1.90;1.10;;;20.80;99.90;;;;;;4891962;29;20648;-72
2022/09/05 02:54:02;;;;;;;2.30;1.50;;;20.90;99.90;;;;;;4965909;28;20594;-72
2022/09/05 02:56:34;;;;;;;1.90;1.40;;;20.80;99.90;;;;;;4969418;28;20575;-72
2022/09/05 02:59:31;;;;;;;2.20;1.37;;;20.80;99.90;;;;;;4965809;28;20603;-72
2022/09/05 03:02:07;;;;;;;2.10;1.20;;;20.80;99.90;;;;;;4975338;28;21113;-72
2022/09/05 03:04:43;;;;;;;2.00;1.20;;;20.80;99.90;;;;;;4975345;28;20562;-72
2022/09/05 03:07:42;;;;;;;1.83;1.23;;;20.80;99.90;;;;;;4975184;28;20563;-72
2022/09/05 03:10:40;;;;;;;1.90;1.30;;;20.70;99.90;;;;;;4974967;28;20591;-72
2022/09/05 03:13:34;;;;;;;2.17;1.37;;;20.80;99.90;;;;;;4973889;28;20942;-72
2022/09/05 03:16:37;;;;;;;2.10;1.30;;;20.80;99.90;;;;;;4973886;28;20641;-72
2022/09/05 03:19:18;;;;;;;1.90;1.10;;;20.80;99.90;;;;;;4974785;28;20602;-72
2022/09/05 03:22:13;;;;;;;1.90;1.50;;;20.70;99.90;;;;;;4974930;28;20575;-72
2022/09/05 03:25:19;;;;;;;2.70;1.50;;;20.70;99.90;;;;;;4947426;28;20594;-72
2022/09/05 03:28:09;;;;;;;1.93;1.30;;;20.70;99.90;;;;;;4974881;28;20590;-72
2022/09/05 03:30:40;;;;;;;2.03;1.50;;;20.70;99.90;;;;;;4957278;28;20661;-72
2022/09/05 03:33:35;;;;;;;2.63;1.30;;;20.70;99.90;;;;;;4974482;28;20914;-72
2022/09/05 03:36:42;;;;;;;3.83;1.20;;;20.70;99.90;;;;;;4958042;28;21448;-72
2022/09/05 03:39:45;;;;;;;2.10;1.53;;;20.70;99.90;;;;;;4973383;28;20613;-72
2022/09/05 03:42:29;;;;;;;4.47;1.20;;;20.70;99.90;;;;;;4974428;28;20578;-72
2022/09/05 03:45:19;;;;;;;1.90;1.40;;;20.70;99.90;;;;;;4973339;28;20571;-72
2022/09/05 03:48:23;;;;;;;3.60;1.83;;;20.70;99.90;;;;;;4974173;28;20611;-72
2022/09/05 03:50:52;;;;;;;4.13;1.73;;;20.70;99.90;;;;;;4946512;28;21108;-72
2022/09/05 03:53:20;;;;;;;2.80;2.60;;;20.70;99.90;;;;;;4974557;28;20598;-72
2022/09/05 03:55:59;;;;;;;4.83;1.37;;;20.70;99.90;;;;;;4974388;28;21129;-72
2022/09/05 03:58:53;;;;;;;2.20;1.40;;;20.70;99.90;;;;;;4974192;28;20584;-72
2022/09/05 04:01:23;;;;;;;2.13;1.33;;;20.70;99.90;;;;;;4973648;28;20982;-72
2022/09/05 04:04:06;;;;;;;2.23;1.60;;;20.70;99.90;;;;;;4974106;28;20579;-72
2022/09/05 04:06:55;;;;;;;1.80;1.40;;;20.70;99.90;;;;;;4974100;28;20582;-72
2022/09/05 04:09:27;;;;;;;2.20;1.57;;;20.70;99.90;;;;;;4973761;28;20680;-72
2022/09/05 04:11:58;;;;;;;1.87;1.63;;;20.70;99.90;;;;;;4973863;28;20635;-72
2022/09/05 04:14:24;;;;;;;1.60;1.10;;;20.70;99.90;;;;;;4956673;28;20563;-72
2022/09/05 04:16:56;;;;;;;2.00;1.43;;;20.70;99.90;;;;;;4973657;28;20563;-72
2022/09/05 04:19:43;;;;;;;2.73;1.40;;;20.70;99.90;;;;;;4973205;28;20294;-72
2022/09/05 04:22:09;;;;;;;1.77;1.40;;;20.70;99.90;;;;;;4973861;28;21018;-72
2022/09/05 04:24:59;;;;;;;2.40;1.30;;;20.70;99.90;;;;;;4956424;28;20626;-72
2022/09/05 04:27:36;;;;;;;2.60;1.50;;;20.70;99.90;;;;;;4973846;28;20164;-72
2022/09/05 04:30:30;;;;;;;3.33;1.33;;;20.60;99.90;;;;;;4973451;28;20677;-72
2022/09/05 04:33:20;;;;;;;2.30;1.67;;;20.70;99.90;;;;;;4973619;28;20594;-72
2022/09/05 04:36:16;;;;;;;4.23;1.13;;;20.60;99.90;;;;;;4973622;28;20579;-72
2022/09/05 04:38:43;;;;;;;2.73;1.47;;;20.60;99.90;;;;;;4967086;28;20725;-72
2022/09/05 04:41:16;;;;;;;1.90;1.30;;;20.60;99.90;;;;;;4973148;28;20626;-72
2022/09/05 04:43:50;;;;;;;2.60;1.20;;;20.50;99.90;;;;;;4956019;28;21144;-72
2022/09/05 04:46:20;;;;;;;2.50;1.40;;;20.60;99.90;;;;;;4973431;28;20579;-72
2022/09/05 04:49:11;;;;;;;2.80;2.00;;;20.60;99.90;;;;;;4973342;28;20598;-74
2022/09/05 04:51:51;;;;;;;1.90;1.50;;;20.50;99.90;;;;;;4973323;28;20619;-73
2022/09/05 04:54:41;;;;;;;3.13;1.60;;;20.50;99.90;;;;;;4973390;28;20991;-71
2022/09/05 04:57:06;;;;;;;1.77;1.43;;;20.50;99.90;;;;;;4973331;28;20741;-71
2022/09/05 05:00:02;;;;;;;3.27;1.30;;;20.50;99.90;;;;;;4972115;28;20733;-71
2022/09/05 05:02:38;;;;;;;1.90;1.40;;;20.50;99.90;;;;;;4972982;28;20168;-72
2022/09/05 05:05:09;;;;;;;3.93;1.50;;;20.50;99.90;;;;;;4956057;28;20950;-74
2022/09/05 05:07:53;;;;;;;2.10;1.33;;;20.50;99.90;;;;;;4973065;28;20675;-73
2022/09/05 05:10:36;;;;;;;2.17;1.43;;;20.50;99.90;;;;;;4972863;28;20609;-73
2022/09/05 05:13:28;;;;;;;2.67;1.70;;;20.50;99.90;;;;;;4973009;28;20571;-73
2022/09/05 05:16:02;;;;;;;2.43;1.40;;;20.50;99.90;;;;;;4972985;28;20582;-73
2022/09/05 05:18:59;;;;;;;2.70;1.40;;;20.60;99.90;;;;;;4972826;28;20966;-73
2022/09/05 05:21:28;;;;;;;1.90;1.20;;;20.60;99.90;;;;;;4964136;28;20749;-73
2022/09/05 05:23:58;;;;;;;2.13;1.63;;;20.60;99.90;;;;;;4973506;28;20564;-78
2022/09/05 05:26:36;;;;;;;4.80;2.20;;;20.70;99.90;;;;;;4972930;28;20563;-78
2022/09/05 05:29:07;;;;;;;4.63;2.47;;;20.70;99.90;;;;;;4973017;28;20602;-78
2022/09/05 05:31:44;;;;;;;2.13;1.93;;;20.80;99.90;;;;;;4972634;28;20932;-78
2022/09/05 05:34:19;;;;;;;2.13;1.80;;;20.80;99.90;;;;;;4955459;28;20575;-78
2022/09/05 05:37:15;;;;;;;2.10;1.70;;;20.90;99.90;;;;;;4973069;28;20578;-75
2022/09/05 05:39:48;;;;;;;2.93;1.90;;;20.90;99.90;;;;;;4966151;28;21056;-75
2022/09/05 05:42:21;;;;;;;4.00;1.37;;;21.00;99.90;;;;;;4972687;28;20579;-74
2022/09/05 05:44:50;;;;;;;2.60;1.50;;;21.00;99.90;;;;;;4972727;28;20579;-74
2022/09/05 05:47:35;;;;;;;3.60;1.90;;;21.00;99.90;;;;;;4975363;28;20607;-77
2022/09/05 05:50:25;;;;;;;2.70;1.70;;;21.10;99.90;;;;;;4978213;28;20619;-77
2022/09/05 05:53:12;;;;;;;2.10;1.80;;;21.10;99.90;;;;;;4960524;28;20930;-76
2022/09/05 05:55:43;;;;;;;5.40;2.33;;;21.20;99.90;;;;;;4978970;28;20567;-76
2022/09/05 05:58:27;;;;;;;3.60;1.60;;;21.20;99.90;;;;;;4967786;28;20586;-77
2022/09/05 06:01:27;;;;;;;3.20;2.27;;;21.30;99.90;;;;;;4973308;28;20709;-76
2022/09/05 06:04:11;;;;;;;2.70;1.93;;;21.30;99.90;;;;;;4972734;28;20578;-77
2022/09/05 06:06:57;;;;;;;2.83;1.70;;;21.30;99.90;;;;;;4972649;28;20897;-77
2022/09/05 06:09:44;;;;;;;2.90;2.00;;;21.40;99.90;;;;;;4972293;28;20617;-77
2022/09/05 06:12:34;;;;;;;3.50;2.50;;;21.40;99.90;;;;;;4975120;28;20559;-77
2022/09/05 06:15:24;;;;;;;2.37;1.70;;;21.50;99.90;;;;;;4959229;28;20666;-78
2022/09/05 06:18:24;;;;;;;2.47;1.30;;;21.40;99.90;;;;;;4976151;28;20567;-78
2022/09/05 06:21:11;;;;;;;3.40;2.17;;;21.50;99.90;;;;;;4958751;28;20627;-78
2022/09/05 06:23:59;;;;;;;2.60;1.93;;;21.50;99.90;;;;;;4976122;28;21166;-77
2022/09/05 06:27:07;;;;;;;3.70;2.30;;;21.60;99.90;;;;;;4976691;28;20563;-78
2022/09/05 06:30:04;;;;;;;4.53;1.23;;;21.70;99.90;;;;;;4939140;28;20621;-77
2022/09/05 06:32:57;;;;;;;2.90;1.70;;;21.80;99.90;;;;;;4978529;28;20570;-78
2022/09/05 06:35:49;;;;;;;3.77;1.57;;;21.80;99.90;;;;;;4975837;28;20571;-78
2022/09/05 06:38:27;;;;;;;2.07;1.40;;;21.90;99.90;;;;;;4945890;28;20922;-77
2022/09/05 06:41:19;;;;;;;3.70;1.60;;;22.00;99.90;;;;;;4975652;28;20618;-78
2022/09/05 06:43:56;;;;;;;3.73;1.70;;;22.10;99.90;;;;;;4975786;28;20562;-77
2022/09/05 06:46:29;;;;;;;3.07;1.50;;;22.50;99.90;;;;;;4958295;28;20567;-77
2022/09/05 06:49:19;;;;;;;1.80;1.10;;;23.20;99.90;;;;;;4975684;28;20642;-77
2022/09/05 06:52:07;;;;;;;2.00;1.50;;;23.90;99.90;;;;;;4975577;28;20563;-77
2022/09/05 06:55:06;;;;;;;2.33;1.43;;;24.70;99.90;;;;;;4975740;28;20587;-77
2022/09/05 06:58:00;;;;;;;2.13;1.20;;;25.70;99.90;;;;;;4975590;28;20567;-78
2022/09/05 07:00:46;;;;;;;2.57;1.20;;;26.60;99.90;;;;;;4975182;28;21380;-74
2022/09/05 07:03:36;;;;;;;1.90;1.00;;;27.10;99.90;;;;;;4975224;28;20628;-74
2022/09/05 07:06:27;;;;;;;2.20;1.30;;;27.70;99.90;;;;;;4958202;28;20571;-73
2022/09/05 07:09:14;;;;;;;6.13;1.20;;;28.30;99.60;;;;;;4975277;28;20609;-74
2022/09/05 07:11:55;;;;;;;3.10;1.40;;;28.90;99.20;;;;;;4975230;28;21043;-75
2022/09/05 07:14:48;;;;;;;3.20;1.30;;;29.50;98.00;;;;;;4974072;28;21170;-75
2022/09/05 07:17:47;;;;;;;2.53;1.10;;;30.10;97.20;;;;;;4977099;28;20568;-74
2022/09/05 07:20:33;;;;;;;2.70;1.40;;;30.70;94.30;;;;;;4948547;28;20705;-76
2022/09/05 07:23:29;;;;;;;8.37;1.50;;;31.40;95.10;;;;;;4956802;28;20683;-75
2022/09/05 07:25:56;;;;;;;3.60;1.00;;;31.90;92.90;;;;;;4975108;28;20566;-75
2022/09/05 07:28:22;;;;;;;2.90;1.43;;;32.70;92.00;;;;;;4974879;28;20565;-75
2022/09/05 07:30:59;;;;;;;3.83;1.37;;;33.40;91.40;;;;;;4974585;28;21659;-75
2022/09/05 07:33:30;;;;;;;3.67;0.93;;;34.10;89.50;;;;;;4974681;28;20581;-75
2022/09/05 07:36:07;;;;;;;4.23;1.10;;;34.70;86.40;;;;;;4974857;28;20595;-75
2022/09/05 07:38:36;;;;;;;2.30;0.90;;;35.00;77.10;;;;;;4974616;28;20624;-75
2022/09/05 07:41:18;;;;;;;2.27;1.10;;;35.30;75.30;;;;;;4974170;28;20618;-75
2022/09/05 07:43:48;;;;;;;3.40;1.67;;;35.20;68.80;;;;;;4973406;28;20682;-77
2022/09/05 07:46:19;;;;;;;1.70;1.10;;;35.00;66.40;;;;;;4976854;28;20563;-75
2022/09/05 07:49:05;;;;;;;2.20;0.80;;;35.00;64.60;;;;;;4974478;28;20607;-75
2022/09/05 07:51:39;;;;;;;1.60;0.80;;;35.00;62.60;;;;;;4974155;28;20598;-75
2022/09/05 07:54:17;;;;;;;1.70;0.90;;;35.30;61.10;;;;;;4974565;28;20671;-75
2022/09/05 07:56:44;;;;;;;1.90;1.00;;;35.80;63.60;;;;;;4956997;28;20614;-75
2022/09/05 07:59:14;;;;;;;1.70;1.00;;;36.30;63.10;;;;;;4974385;28;20635;-75
2022/09/05 08:01:46;;;;;;;2.80;1.13;;;36.70;61.00;;;;;;4973044;28;20598;-75
2022/09/05 08:04:34;;;;;;;2.80;1.00;;;37.00;59.20;;;;;;4974400;28;20575;-75
2022/09/05 08:07:17;;;;;;;3.10;0.90;;;37.20;57.90;;;;;;4974229;28;20555;-75
2022/09/05 08:09:55;;;;;;;4.57;1.30;;;37.30;56.00;;;;;;4973743;28;20662;-75
2022/09/05 08:12:25;;;;;;;2.20;1.40;;;37.70;55.80;;;;;;4974243;28;21033;-75
2022/09/05 08:15:11;;;;;;;1.63;0.93;;;37.90;53.80;;;;;;4956846;28;20571;-75
2022/09/05 08:18:04;;;;;;;3.20;1.20;;;38.10;54.00;;;;;;4974208;28;20583;-75
2022/09/05 08:20:46;;;;;;;2.83;1.00;;;38.20;52.00;;;;;;4973330;28;20979;-75
2022/09/05 08:23:17;;;;;;;1.93;0.97;;;38.10;51.30;;;;;;4973710;28;20674;-75
2022/09/05 08:25:56;;;;;;;2.67;1.10;;;37.90;50.30;;;;;;4974733;28;20580;-75
2022/09/05 08:28:33;;;;;;;1.40;0.70;;;38.10;50.70;;;;;;4973774;28;20957;-75
2022/09/05 08:31:13;;;;;;;3.10;0.90;;;38.50;50.50;;;;;;4973575;28;20578;-75
2022/09/05 08:33:40;;;;;;;2.00;0.73;;;38.90;50.20;;;;;;4973809;28;20567;-75
2022/09/05 08:36:19;;;;;;;2.77;1.13;;;39.30;50.10;;;;;;4972439;28;20586;-75
2022/09/05 08:38:45;;;;;;;1.73;0.90;;;39.70;47.60;;;;;;4974050;28;20621;-75
2022/09/05 08:41:23;;;;;;;3.90;0.97;;;39.50;46.50;;;;;;4939774;28;20630;-75
2022/09/05 08:44:10;;;;;;;1.80;1.00;;;39.20;45.80;;;;;;4956284;28;20937;-75
2022/09/05 08:46:50;;;;;;;1.97;1.33;;;39.00;44.50;;;;;;4973533;28;20568;-75
2022/09/05 08:49:42;;;;;;;1.50;0.80;;;38.80;45.20;;;;;;4974149;28;21105;-75
2022/09/05 08:52:29;;;;;;;2.70;0.90;;;38.70;45.10;;;;;;4973289;28;21127;-75
2022/09/05 08:55:03;;;;;;;1.80;0.70;;;38.60;45.20;;;;;;4973487;28;21136;-75
2022/09/05 08:57:44;;;;;;;3.93;1.10;;;38.80;44.80;;;;;;4973252;28;20605;-75
2022/09/05 09:00:14;;;;;;;1.90;1.10;;;38.80;45.00;;;;;;4955573;28;20649;-76
2022/09/05 09:03:13;;;;;;;1.70;0.77;;;38.80;44.30;;;;;;4973116;28;20655;-75
2022/09/05 09:05:48;;;;;;;3.77;1.20;;;38.70;43.40;;;;;;4973378;28;20582;-75
2022/09/05 09:08:46;;;;;;;3.70;0.93;;;38.80;43.90;;;;;;4955749;28;20574;-75
2022/09/05 09:11:34;;;;;;;1.70;0.90;;;38.90;43.70;;;;;;4972778;28;21155;-75
2022/09/05 09:14:18;;;;;;;1.73;0.97;;;39.10;43.80;;;;;;4973054;28;20602;-75
2022/09/05 09:16:43;;;;;;;1.70;0.80;;;39.50;43.80;;;;;;4955835;28;20597;-75
2022/09/05 09:19:24;;;;;;;1.77;0.90;;;39.90;43.80;;;;;;4972818;28;20722;-75
2022/09/05 09:22:13;;;;;;;2.17;0.90;;;40.10;42.00;;;;;;4972750;28;20681;-75
2022/09/05 09:25:19;;;;;;;2.63;0.77;;;40.30;41.40;;;;;;4973072;28;21100;-75
2022/09/05 09:28:19;;;;;;;2.40;0.87;;;40.40;41.60;;;;;;4955652;28;20582;-75
2022/09/05 09:31:12;;;;;;;1.77;0.70;;;40.90;41.80;;;;;;4955348;28;20638;-75
2022/09/05 09:33:49;;;;;;;1.80;0.80;;;41.30;40.70;;;;;;4933142;28;20588;-73
2022/09/05 09:36:53;;;;;;;3.03;0.70;;;41.80;40.90;;;;;;4972722;28;20594;-72
2022/09/05 09:39:46;;;;;;;1.60;0.70;;;41.90;39.10;;;;;;4972336;28;20593;-72
2022/09/05 09:42:36;;;;;;;1.80;0.80;;;42.00;38.00;;;;;;4972732;28;20559;-73
2022/09/05 09:45:41;;;;;;;3.17;0.87;;;42.00;38.10;;;;;;4972770;28;20563;-75
2022/09/05 09:48:25;;;;;;;2.27;0.70;;;42.00;37.70;;;;;;4936081;28;20656;-73
2022/09/05 09:51:34;;;;;;;3.10;0.70;;;41.80;36.00;;;;;;4978523;28;20578;-75
2022/09/05 09:54:30;;;;;;;4.07;0.73;;;42.00;37.40;;;;;;4913268;28;20650;-73
2022/09/05 09:57:17;;;;;;;2.13;0.70;;;42.40;35.10;;;;;;4979076;28;20641;-73
2022/09/05 10:00:06;;;;;;;3.77;0.70;;;42.50;34.80;;;;;;4978655;28;21302;-73
2022/09/05 10:03:16;;;;;;;1.67;0.50;;;42.40;35.40;;;;;;4978911;28;20567;-73
2022/09/05 10:05:53;;;;;;;1.60;0.70;;;42.70;35.30;;;;;;4945552;28;20666;-73
2022/09/05 10:08:40;;;;;;;3.17;0.80;;;43.10;34.20;;;;;;4961622;28;20661;-73
2022/09/05 10:11:31;;;;;;;1.97;0.80;;;43.10;33.30;;;;;;4978602;28;20622;-73
2022/09/05 10:14:42;;;;;;;1.60;0.73;;;43.00;33.70;;;;;;4961445;28;20921;-73
2022/09/05 10:17:34;;;;;;;1.40;0.70;;;42.90;31.60;;;;;;4942505;28;20977;-74
2022/09/05 10:20:21;;;;;;;1.57;0.80;;;42.80;32.30;;;;;;4960532;28;21044;-73
2022/09/05 10:23:00;;;;;;;1.83;0.70;;;43.00;31.70;;;;;;4978577;28;20667;-73
2022/09/05 10:25:32;;;;;;;1.77;0.70;;;42.70;29.90;;;;;;4978915;28;21092;-74
2022/09/05 10:28:15;;;;;;;1.60;0.70;;;42.60;31.00;;;;;;4978790;28;20566;-74
2022/09/05 10:31:11;;;;;;;1.70;0.87;;;42.50;30.80;;;;;;4978362;28;20626;-74
2022/09/05 10:33:42;;;;;;;2.77;0.90;;;42.30;30.20;;;;;;4974701;28;20579;-74
2022/09/05 10:36:27;;;;;;;1.60;0.63;;;42.30;31.20;;;;;;4978686;28;20563;-74
2022/09/05 10:39:19;;;;;;;1.43;0.77;;;42.50;31.10;;;;;;4978488;28;20628;-74
2022/09/05 10:41:48;;;;;;;1.30;0.70;;;42.40;31.80;;;;;;4961054;28;20678;-74
2022/09/05 10:44:24;;;;;;;1.40;0.60;;;42.60;31.30;;;;;;4978501;28;20578;-74
2022/09/05 10:47:27;;;;;;;1.50;0.70;;;42.70;31.00;;;;;;4977401;28;20665;-74
2022/09/05 10:50:23;;;;;;;3.27;0.80;;;42.70;30.30;;;;;;4978162;28;21206;-74
2022/09/05 10:52:49;;;;;;;1.40;0.70;;;42.50;29.90;;;;;;4978462;28;20625;-74
2022/09/05 10:55:29;;;;;;;3.40;0.90;;;42.50;30.30;;;;;;4978390;28;21136;-74
2022/09/05 10:58:35;;;;;;;2.00;0.60;;;42.50;30.00;;;;;;4975854;28;20626;-74
2022/09/05 11:01:41;;;;;;;2.50;0.67;;;42.30;30.30;;;;;;4975240;28;20575;-74
2022/09/05 11:04:32;;;;;;;1.73;0.80;;;42.40;30.50;;;;;;4974743;28;20666;-74
2022/09/05 11:07:40;;;;;;;1.83;0.63;;;42.40;30.50;;;;;;4958076;28;20674;-74
2022/09/05 11:10:34;;;;;;;2.53;0.70;;;42.50;30.50;;;;;;4974601;28;20733;-74
2022/09/05 11:13:30;;;;;;;2.90;1.00;;;42.30;28.00;;;;;;4939199;28;20598;-74
2022/09/05 11:16:22;;;;;;;1.40;0.60;;;42.10;30.10;;;;;;4975078;28;20928;-74
2022/09/05 11:19:02;;;;;;;1.40;0.60;;;42.00;29.50;;;;;;4970815;28;20712;-74
2022/09/05 11:21:52;;;;;;;1.50;0.70;;;41.70;29.30;;;;;;4957342;28;20942;-73
2022/09/05 11:25:01;;;;;;;1.50;0.70;;;41.40;29.40;;;;;;4974975;28;20579;-74
2022/09/05 11:27:35;;;;;;;1.30;0.60;;;41.20;29.50;;;;;;4938009;28;20599;-78
2022/09/05 11:30:05;;;;;;;1.60;0.80;;;41.00;29.30;;;;;;4974636;28;21040;-78
2022/09/05 11:32:55;;;;;;;1.50;0.70;;;41.00;29.40;;;;;;4974748;28;20568;-78
2022/09/05 11:35:28;;;;;;;1.87;0.73;;;40.70;28.40;;;;;;4957565;28;20563;-79
2022/09/05 11:38:09;;;;;;;3.33;0.77;;;40.30;28.90;;;;;;4941811;28;20581;-79
2022/09/05 11:41:19;;;;;;;1.30;0.60;;;40.00;28.90;;;;;;4973190;28;20614;-79
2022/09/05 11:44:04;;;;;;;2.10;0.90;;;39.70;27.80;;;;;;4974520;28;20624;-79
2022/09/05 11:46:44;;;;;;;1.77;0.70;;;39.50;28.90;;;;;;4974748;28;20554;-79
2022/09/05 11:49:39;;;;;;;1.30;0.60;;;39.10;28.40;;;;;;4974187;28;20590;-79
2022/09/05 11:52:26;;;;;;;1.60;0.70;;;38.90;29.30;;;;;;4973144;28;20597;-79
2022/09/05 11:55:07;;;;;;;1.50;0.70;;;38.90;29.70;;;;;;4974354;28;20625;-79
2022/09/05 11:57:52;;;;;;;1.47;0.63;;;38.80;29.40;;;;;;4974454;28;20571;-79
2022/09/05 12:00:24;;;;;;;1.93;0.60;;;38.70;29.20;;;;;;4957158;28;20702;-79
2022/09/05 12:03:27;;;;;;;3.33;0.70;;;38.30;29.10;;;;;;4961423;28;20571;-79
2022/09/05 12:06:24;;;;;;;1.53;0.70;;;37.90;29.10;;;;;;4974241;28;20563;-79
2022/09/05 12:08:55;;;;;;;2.17;0.60;;;37.50;29.20;;;;;;4956526;28;20591;-80
2022/09/05 12:11:39;;;;;;;1.30;0.60;;;37.30;29.40;;;;;;4973722;28;20659;-79
2022/09/05 12:14:36;;;;;;;1.60;0.70;;;37.10;29.70;;;;;;4952071;28;20595;-79
2022/09/05 12:17:33;;;;;;;1.67;0.60;;;37.00;30.20;;;;;;4972932;28;20926;-79
2022/09/05 12:20:13;;;;;;;1.50;0.60;;;37.20;30.70;;;;;;4972463;28;20621;-79
2022/09/05 12:22:52;;;;;;;2.00;0.80;;;37.30;30.60;;;;;;4956669;28;20924;-79
2022/09/05 12:25:22;;;;;;;2.17;0.83;;;37.50;30.40;;;;;;4973947;28;20571;-79
2022/09/05 12:27:53;;;;;;;2.90;0.90;;;37.70;30.50;;;;;;4974032;28;20629;-79
2022/09/05 12:30:28;;;;;;;1.30;0.60;;;37.80;30.50;;;;;;4973505;28;20627;-79
2022/09/05 12:33:02;;;;;;;1.70;0.70;;;37.90;29.80;;;;;;4973857;28;20578;-79
2022/09/05 12:35:50;;;;;;;1.93;0.80;;;37.80;29.90;;;;;;4973748;28;20567;-80
2022/09/05 12:38:25;;;;;;;1.73;0.60;;;37.70;29.40;;;;;;4977017;28;20578;-79
2022/09/05 12:41:14;;;;;;;2.50;0.80;;;37.40;29.40;;;;;;4973941;28;20686;-79
2022/09/05 12:44:27;;;;;;;3.30;0.80;;;36.90;29.20;;;;;;4973605;28;20583;-79
2022/09/05 12:47:01;;;;;;;1.30;0.60;;;36.60;29.50;;;;;;4966334;28;20609;-79
2022/09/05 12:49:43;;;;;;;2.07;0.90;;;36.40;29.90;;;;;;4971803;28;20615;-80
2022/09/05 12:52:32;;;;;;;1.87;0.80;;;36.20;29.90;;;;;;4973400;28;20633;-79
2022/09/05 12:55:15;;;;;;;6.27;0.97;;;35.90;29.80;;;;;;4973338;28;20911;-79
2022/09/05 12:57:43;;;;;;;1.80;0.80;;;35.60;30.00;;;;;;4973495;28;20726;-80
2022/09/05 13:00:13;;;;;;;1.70;0.80;;;35.40;30.00;;;;;;4952047;28;20634;-80
2022/09/05 13:02:44;;;;;;;1.47;0.70;;;35.20;30.00;;;;;;4965236;28;20594;-80
2022/09/05 13:05:15;;;;;;;1.30;0.60;;;34.80;30.00;;;;;;4969692;28;22308;-80
2022/09/05 13:07:47;;;;;;;1.40;0.60;;;34.60;30.20;;;;;;4945179;28;21153;-80
2022/09/05 13:10:19;;;;;;;1.50;0.60;;;34.40;30.30;;;;;;4956168;28;20673;-81
2022/09/05 13:12:53;;;;;;;1.40;0.60;;;34.20;30.30;;;;;;4951103;28;20665;-80
2022/09/05 13:15:29;;;;;;;5.20;0.70;;;34.00;30.50;;;;;;4969679;28;20594;-80
2022/09/05 13:18:24;;;;;;;1.50;0.70;;;33.70;30.70;;;;;;4979736;28;20591;-80
2022/09/05 13:21:10;;;;;;;2.00;0.60;;;33.40;30.70;;;;;;4958785;28;20602;-80
2022/09/05 13:24:10;;;;;;;1.87;0.80;;;33.20;31.00;;;;;;4972459;28;20583;-78
2022/09/05 13:26:58;;;;;;;1.60;0.73;;;33.00;31.70;;;;;;4972625;28;20961;-81
2022/09/05 13:29:31;;;;;;;2.40;0.70;;;32.90;31.40;;;;;;4972511;28;20722;-80
2022/09/05 13:32:20;;;;;;;3.77;0.90;;;32.80;31.40;;;;;;4973404;28;21186;-79
2022/09/05 13:34:54;;;;;;;1.63;0.80;;;32.70;31.50;;;;;;4961949;28;20587;-79
2022/09/05 13:38:09;;;;;;;2.07;0.80;;;32.50;31.80;;;;;;4952800;29;20619;-79
2022/09/05 13:40:47;;;;;;;3.33;0.90;;;32.40;32.00;;;;;;4935886;29;20675;-80
2022/09/05 13:43:25;;;;;;;2.10;0.80;;;32.30;32.10;;;;;;4936816;29;21030;-75
2022/09/05 13:46:10;;;;;;;1.80;0.80;;;32.30;31.90;;;;;;4968061;28;20571;-75
2022/09/05 13:48:54;;;;;;;7.10;1.00;;;32.30;32.10;;;;;;4954780;28;20611;-75
2022/09/05 13:51:49;;;;;;;1.90;1.00;;;32.30;32.00;;;;;;4941682;28;20634;-75
2022/09/05 13:54:39;;;;;;;1.40;0.80;;;32.20;32.10;;;;;;4956557;28;20595;-74
2022/09/05 13:57:15;;;;;;;1.53;0.60;;;32.20;32.20;;;;;;4963459;28;20665;-75
2022/09/05 14:00:02;;;;;;;1.90;0.77;;;32.20;32.10;;;;;;4952910;28;20657;-75
2022/09/05 14:03:03;;;;;;;1.83;0.70;;;32.30;32.20;;;;;;4961311;28;20594;-75
2022/09/05 14:05:47;;;;;;;1.53;0.67;;;32.20;32.50;;;;;;4972425;28;21128;-74
2022/09/05 14:08:44;;;;;;;1.40;0.90;;;32.20;32.20;;;;;;4972504;28;20686;-74
2022/09/05 14:11:51;;;;;;;1.60;0.73;;;32.20;32.40;;;;;;4972120;28;21188;-75
2022/09/05 14:14:36;;;;;;;1.60;0.70;;;32.10;32.60;;;;;;4954923;28;21221;-74
2022/09/05 14:17:18;;;;;;;1.77;0.70;;;32.10;32.30;;;;;;4955050;28;20575;-75